Huvudsida
METAR-TAF:

METAR-TAF

Flygplatser :

Røros flygplats

Röros, Norge

latitud: 62-35N, longitud: 011-21E, höjd: 626 m

Aktuellt väderrapport

Denna rapport gjordes för 13 minuter sedan, klockan 22:50 UTC
Vind 1 kt varierande vindriktning
Temperatur -18°C
Fuktighet 84%
Tryck 1004 hPa
Sikt: 2000 m

METAR: ENRO 232250Z AUTO VRB01KT 2000NDV OVC002/// M18/M20 Q1004

Tid: 00:03 (23:03 UTC)

Väderprognos

Denna rapport gjordes för 12 timmar och 3 minuter sedan, klockan 11:00 UTC
Prognos gäller från 23 kl. 12 UTC till 23 kl. 19 UTC
Vind 3 kt varierande vindriktning
Sikt 10 km eller mer
Inga moln under 1 500 m eller inga cumulonimbus

TAF: ENRO 231100Z 2312/2319 VRB03KT CAVOK

Aktuella väderrapporter och prognoser från 4000 flygplatser (METAR- och TAF-rapporter).

De tillgängliga stationerna syns som gula och röda prickar på kartan.

För musen över prickarna för att se namnen på stationerna.

Klicka sedan för att få väderrapporter och prognoser.

För att ändra kartan: Klicka på de gröna knapparna med ett svart kors på för att zooma in; den gröna knappen med ett streck på för att zooma ut; eller på de gröna pilarna för angränsande kartor.


METAR-TAF: